Maran Poseidon — SVAV3 — position and weather

sailwx.info

Track history (hours):
 
Tides and Currents Weather Stations Pressure Air Temp Water Temp Dewpoint Dewpoint Depression Visibility Wind Speed Wind Dir Waves Ship Positions

Maran Poseidon

Last reported at 2014-May-18 20:12 UTC. Time now 2014-Jul-23 07:54 UTC.
Position N 35°22' W 012°42'.
Warning: this ship's position is months out of date.

Length 274 m; draft 9.6 m.

Type: Tanker. MMSI: 240959000.

Date/timePositionNaut miles runAvg speedWind from/ knotsBaromVisibWave heightAir tempDewpointWater temp
2014-May-18 20:12N 35°22' W 012°42'913.4
2014-May-18 19:31N 35°31' W 012°39'1413.5
2014-May-18 18:29N 35°45' W 012°35'1913.6
2014-May-18 17:05N 36°03' W 012°29'1313.7
2014-May-18 16:11N 36°15' W 012°25'1413.6
2014-May-18 15:07N 36°29' W 012°20'813.7
2014-May-18 14:31N 36°37' W 012°17'1813.7
2014-May-18 13:13N 36°54' W 012°12'914.0
2014-May-18 12:33N 37°03' W 012°09'1413.8
2014-May-18 11:33N 37°16' W 012°04'1413.5
2014-May-18 10:31N 37°30' W 011°59'1313.8
2014-May-18 09:33N 37°43' W 011°55'1414.3
2014-May-18 08:33N 37°57' W 011°50'1413.9
2014-May-18 07:33N 38°10' W 011°46'1413.5
2014-May-18 06:33N 38°23' W 011°41'1413.7
2014-May-18 05:34N 38°36' W 011°37'1414.1
2014-May-18 04:33N 38°50' W 011°32'1413.9
2014-May-18 03:33N 39°03' W 011°28'1414.0
2014-May-18 02:33N 39°17' W 011°23'1413.9
2014-May-18 01:33N 39°30' W 011°18'1413.8
2014-May-18 00:33N 39°44' W 011°14'1413.5
2014-May-17 23:33N 39°57' W 011°09'1313.3
2014-May-17 22:33N 40°10' W 011°05'1413.6
2014-May-17 21:33N 40°23' W 011°00'2813.6
2014-May-17 19:27N 40°50' W 010°51'1213.8
2014-May-17 18:33N 41°02' W 010°46'1413.7
2014-May-17 17:32N 41°16' W 010°41'2913.8
2014-May-17 15:26N 41°44' W 010°31'2614.0
2014-May-17 13:33N 42°09' W 010°22'1413.8
2014-May-17 12:33N 42°22' W 010°17'1813.4
2014-May-17 11:15N 42°39' W 010°12'1513.6
2014-May-17 10:09N 42°54' W 010°07'1013.3
2014-May-17 09:22N 43°04' W 010°07'51310.9
2014-May-15 10:08N 50°00' W 002°50'6 8.3
2014-May-15 09:24N 50°02' W 002°40'6 7.2
2014-May-15 08:33N 50°04' W 002°31'6 6.4
2014-May-15 07:33N 50°05' W 002°22'6 6.4
2014-May-15 06:33N 50°07' W 002°12'7 7.4
2014-May-15 05:33N 50°09' W 002°01'9 9.3
2014-May-15 04:33N 50°11' W 001°47'1111.3
2014-May-15 03:33N 50°14' W 001°30'1312.6
2014-May-15 02:33N 50°18' W 001°11'1313.0
2014-May-15 01:33N 50°21' W 000°51'1211.9
2014-May-15 00:33N 50°24' W 000°33'1110.8
2014-May-14 23:33N 50°27' W 000°17'9 9.3
2014-May-14 22:33N 50°29' W 000°03'8 8.0
2014-May-14 21:33N 50°31' E 000°10'7 7.1
2014-May-14 20:33N 50°33' E 000°20'8 7.7
2014-May-14 19:33N 50°34' E 000°32'9 9.0
2014-May-14 18:33N 50°39' E 000°44'3410.8
2014-May-14 15:28N 51°00' E 001°26'8 8.7
2014-May-14 14:33N 51°06' E 001°34'14 7.2
2014-May-14 12:33N 51°17' E 001°49'8 7.6
2014-May-14 11:33N 51°24' E 001°54'11 8.9
2014-May-14 10:19N 51°32' E 002°05'810.2
2014-May-14 09:32N 51°38' E 002°14'1111.1
2014-May-14 08:32N 51°47' E 002°25'  
2014-May-11 23:29N 52°28' E 002°28'3 3.2
2014-May-11 22:33N 52°25' E 002°26'2 2.4
2014-May-11 21:33N 52°23' E 002°24'3 1.1
2014-May-11 19:03N 52°22' E 002°20'  
2014-May-09 14:30N 52°05' E 002°50'3 1.4
2014-May-09 12:33N 52°08' E 002°48'9 7.2
2014-May-09 11:13N 52°16' E 002°56'1 2.2
2014-May-09 10:33N 52°15' E 002°54'4 3.5
2014-May-09 09:30N 52°12' E 002°52'29 5.8
2014-May-09 04:32N 52°04' E 003°38'10 9.8
2014-May-09 03:33N 52°03' E 003°53'8 8.2
2014-May-09 02:33N 51°59' E 004°04'1 0.7
2014-May-09 01:33N 51°58' E 004°04'0 0.0
2014-May-09 00:32N 51°58' E 004°04'0 0.0
2014-May-08 23:32N 51°58' E 004°04'0 0.0
2014-May-08 22:33N 51°58' E 004°04'0 0.0
2014-May-08 21:32N 51°58' E 004°04'0 0.0
2014-May-08 20:15N 51°58' E 004°04'  
Track history (hours):
 
Tides and Currents Weather Stations Pressure Air Temp Water Temp Dewpoint Dewpoint Depression Visibility Wind Speed Wind Dir Waves Ship Positions

Maran Poseidon

Last reported at 2014-May-18 20:12 UTC. Time now 2014-Jul-23 07:54 UTC.
Position N 35°22' W 012°42'.
Warning: this ship's position is months out of date.

Length 274 m; draft 9.6 m.

Type: Tanker. MMSI: 240959000.

Date/timePositionNaut miles runAvg speedWind from/ knotsBaromVisibWave heightAir tempDewpointWater temp
2014-May-18 20:12N 35°22' W 012°42'913.4
2014-May-18 19:31N 35°31' W 012°39'1413.5
2014-May-18 18:29N 35°45' W 012°35'1913.6
2014-May-18 17:05N 36°03' W 012°29'1313.7
2014-May-18 16:11N 36°15' W 012°25'1413.6
2014-May-18 15:07N 36°29' W 012°20'813.7
2014-May-18 14:31N 36°37' W 012°17'1813.7
2014-May-18 13:13N 36°54' W 012°12'914.0
2014-May-18 12:33N 37°03' W 012°09'1413.8
2014-May-18 11:33N 37°16' W 012°04'1413.5
2014-May-18 10:31N 37°30' W 011°59'1313.8
2014-May-18 09:33N 37°43' W 011°55'1414.3
2014-May-18 08:33N 37°57' W 011°50'1413.9
2014-May-18 07:33N 38°10' W 011°46'1413.5
2014-May-18 06:33N 38°23' W 011°41'1413.7
2014-May-18 05:34N 38°36' W 011°37'1414.1
2014-May-18 04:33N 38°50' W 011°32'1413.9
2014-May-18 03:33N 39°03' W 011°28'1414.0
2014-May-18 02:33N 39°17' W 011°23'1413.9
2014-May-18 01:33N 39°30' W 011°18'1413.8
2014-May-18 00:33N 39°44' W 011°14'1413.5
2014-May-17 23:33N 39°57' W 011°09'1313.3
2014-May-17 22:33N 40°10' W 011°05'1413.6
2014-May-17 21:33N 40°23' W 011°00'2813.6
2014-May-17 19:27N 40°50' W 010°51'1213.8
2014-May-17 18:33N 41°02' W 010°46'1413.7
2014-May-17 17:32N 41°16' W 010°41'2913.8
2014-May-17 15:26N 41°44' W 010°31'2614.0
2014-May-17 13:33N 42°09' W 010°22'1413.8
2014-May-17 12:33N 42°22' W 010°17'1813.4
2014-May-17 11:15N 42°39' W 010°12'1513.6
2014-May-17 10:09N 42°54' W 010°07'1013.3
2014-May-17 09:22N 43°04' W 010°07'51310.9
2014-May-15 10:08N 50°00' W 002°50'6 8.3
2014-May-15 09:24N 50°02' W 002°40'6 7.2
2014-May-15 08:33N 50°04' W 002°31'6 6.4
2014-May-15 07:33N 50°05' W 002°22'6 6.4
2014-May-15 06:33N 50°07' W 002°12'7 7.4
2014-May-15 05:33N 50°09' W 002°01'9 9.3
2014-May-15 04:33N 50°11' W 001°47'1111.3
2014-May-15 03:33N 50°14' W 001°30'1312.6
2014-May-15 02:33N 50°18' W 001°11'1313.0
2014-May-15 01:33N 50°21' W 000°51'1211.9
2014-May-15 00:33N 50°24' W 000°33'1110.8
2014-May-14 23:33N 50°27' W 000°17'9 9.3
2014-May-14 22:33N 50°29' W 000°03'8 8.0
2014-May-14 21:33N 50°31' E 000°10'7 7.1
2014-May-14 20:33N 50°33' E 000°20'8 7.7
2014-May-14 19:33N 50°34' E 000°32'9 9.0
2014-May-14 18:33N 50°39' E 000°44'3410.8
2014-May-14 15:28N 51°00' E 001°26'8 8.7
2014-May-14 14:33N 51°06' E 001°34'14 7.2
2014-May-14 12:33N 51°17' E 001°49'8 7.6
2014-May-14 11:33N 51°24' E 001°54'11 8.9
2014-May-14 10:19N 51°32' E 002°05'810.2
2014-May-14 09:32N 51°38' E 002°14'1111.1
2014-May-14 08:32N 51°47' E 002°25'  
2014-May-11 23:29N 52°28' E 002°28'3 3.2
2014-May-11 22:33N 52°25' E 002°26'2 2.4
2014-May-11 21:33N 52°23' E 002°24'3 1.1
2014-May-11 19:03N 52°22' E 002°20'  
2014-May-09 14:30N 52°05' E 002°50'3 1.4
2014-May-09 12:33N 52°08' E 002°48'9 7.2
2014-May-09 11:13N 52°16' E 002°56'1 2.2
2014-May-09 10:33N 52°15' E 002°54'4 3.5
2014-May-09 09:30N 52°12' E 002°52'29 5.8
2014-May-09 04:32N 52°04' E 003°38'10 9.8
2014-May-09 03:33N 52°03' E 003°53'8 8.2
2014-May-09 02:33N 51°59' E 004°04'1 0.7
2014-May-09 01:33N 51°58' E 004°04'0 0.0
2014-May-09 00:32N 51°58' E 004°04'0 0.0
2014-May-08 23:32N 51°58' E 004°04'0 0.0
2014-May-08 22:33N 51°58' E 004°04'0 0.0
2014-May-08 21:32N 51°58' E 004°04'0 0.0
2014-May-08 20:15N 51°58' E 004°04'  

Dump ship's entire track history